createdAt,value
2022-08-29T00:02:08.001Z,27.00
2022-08-29T00:04:36.735Z,26.90
2022-08-29T00:07:06.363Z,26.90
2022-08-29T00:09:35.000Z,26.90
2022-08-29T00:12:03.228Z,26.90
2022-08-29T00:14:33.318Z,26.70
2022-08-29T00:17:01.583Z,26.60
2022-08-29T00:19:30.535Z,26.60
2022-08-29T00:21:59.005Z,26.70
2022-08-29T00:24:28.930Z,26.80
2022-08-29T00:26:59.710Z,26.80
2022-08-29T00:29:28.135Z,26.80
2022-08-29T00:31:56.417Z,26.80
2022-08-29T00:34:24.621Z,26.80
2022-08-29T00:36:53.386Z,26.80
2022-08-29T00:39:23.148Z,26.80
2022-08-29T00:41:53.365Z,26.80
2022-08-29T00:44:21.690Z,26.80
2022-08-29T00:46:54.019Z,26.80
2022-08-29T00:49:32.194Z,26.80
2022-08-29T00:52:06.093Z,26.70
2022-08-29T00:54:35.226Z,26.60
2022-08-29T00:57:05.780Z,26.60
2022-08-29T00:59:38.203Z,26.50
2022-08-29T01:02:07.894Z,26.50
2022-08-29T01:04:35.976Z,26.30
2022-08-29T01:07:04.728Z,26.30
2022-08-29T01:09:34.298Z,26.30
2022-08-29T01:12:15.945Z,26.20
2022-08-29T01:14:49.125Z,26.10
2022-08-29T01:17:22.408Z,26.10
2022-08-29T01:19:56.001Z,26.00
2022-08-29T01:22:40.468Z,25.90
2022-08-29T01:25:12.627Z,25.90
2022-08-29T01:27:44.789Z,25.90
2022-08-29T01:30:15.247Z,25.80
2022-08-29T01:32:43.771Z,25.80
2022-08-29T01:35:12.312Z,25.70
2022-08-29T01:37:44.561Z,25.70
2022-08-29T01:40:15.418Z,25.70
2022-08-29T01:42:44.414Z,25.70
2022-08-29T01:45:13.171Z,25.70
2022-08-29T01:47:41.702Z,25.60
2022-08-29T01:50:13.556Z,25.60
2022-08-29T01:52:43.181Z,25.60
2022-08-29T01:55:13.105Z,25.60
2022-08-29T01:57:41.636Z,25.50
2022-08-29T02:00:11.853Z,25.50
2022-08-29T02:02:41.242Z,25.50
2022-08-29T02:05:10.337Z,25.50
2022-08-29T02:07:38.834Z,25.40
2022-08-29T02:10:08.265Z,25.40
2022-08-29T02:12:38.028Z,25.40
2022-08-29T02:15:07.201Z,25.40
2022-08-29T02:17:35.664Z,24.90
2022-08-29T03:39:56.517Z,24.80
2022-08-29T04:15:11.978Z,23.80
2022-08-29T04:20:25.098Z,23.70
2022-08-29T04:22:55.299Z,24.10
2022-08-29T04:42:50.307Z,23.40
2022-08-29T04:52:47.131Z,23.20
2022-08-29T05:17:46.863Z,22.50
2022-08-29T06:02:57.386Z,22.50
2022-08-29T06:05:25.574Z,22.50
2022-08-29T06:07:55.144Z,22.30
2022-08-29T06:10:23.517Z,22.30
2022-08-29T06:12:51.736Z,22.30
2022-08-29T06:15:20.177Z,22.30
2022-08-29T06:17:48.340Z,22.20
2022-08-29T06:20:16.933Z,22.20
2022-08-29T06:22:45.116Z,22.30
2022-08-29T06:25:37.829Z,22.30
2022-08-29T06:28:03.234Z,22.40
2022-08-29T06:30:33.827Z,22.40
2022-08-29T06:33:02.733Z,22.40
2022-08-29T06:37:59.733Z,22.60
2022-08-29T06:40:29.333Z,22.60
2022-08-29T06:42:57.608Z,22.60
2022-08-29T06:45:25.762Z,22.60
2022-08-29T06:47:53.981Z,22.60
2022-08-29T06:50:22.183Z,22.70
2022-08-29T06:52:50.553Z,22.80
2022-08-29T06:55:24.041Z,22.90
2022-08-29T06:57:53.928Z,23.00
2022-08-29T07:00:23.781Z,23.10
2022-08-29T07:02:52.404Z,23.30
2022-08-29T07:05:21.740Z,23.30
2022-08-29T07:07:50.397Z,23.40
2022-08-29T07:10:22.280Z,23.50
2022-08-29T07:12:51.454Z,23.70
2022-08-29T07:15:21.784Z,23.80
2022-08-29T07:17:50.374Z,23.90
2022-08-29T07:20:19.183Z,24.10
2022-08-29T07:22:51.353Z,24.10
2022-08-29T07:25:21.673Z,24.40
2022-08-29T07:27:53.387Z,24.70
2022-08-29T07:30:23.900Z,24.90
2022-08-29T07:32:52.379Z,25.20
2022-08-29T07:35:29.835Z,25.50
2022-08-29T07:38:01.168Z,25.80
2022-08-29T07:40:29.776Z,25.80
2022-08-29T07:42:58.033Z,26.10
2022-08-29T07:45:27.565Z,26.20
2022-08-29T07:47:55.773Z,26.30
2022-08-29T07:50:23.956Z,26.40
2022-08-29T07:52:52.591Z,26.50
2022-08-29T07:55:22.027Z,26.60
2022-08-29T07:57:52.585Z,26.80
2022-08-29T08:00:21.522Z,26.90
2022-08-29T08:02:51.450Z,26.80
2022-08-29T08:05:19.724Z,26.70
2022-08-29T08:07:55.667Z,26.90
2022-08-29T08:10:24.738Z,27.20
2022-08-29T08:12:52.902Z,27.40
2022-08-29T08:15:22.813Z,27.60
2022-08-29T08:17:52.368Z,27.60
2022-08-29T08:20:20.606Z,27.90
2022-08-29T08:22:48.804Z,28.30
2022-08-29T08:25:17.063Z,28.60
2022-08-29T08:27:45.339Z,29.00
2022-08-29T08:30:14.719Z,29.20
2022-08-29T08:32:46.425Z,29.20
2022-08-29T08:35:19.667Z,29.10
2022-08-29T08:37:49.485Z,29.30
2022-08-29T08:40:21.203Z,29.80
2022-08-29T08:42:50.738Z,30.30
2022-08-29T08:45:20.776Z,30.90
2022-08-29T08:47:52.912Z,31.30
2022-08-29T08:50:28.444Z,31.50
2022-08-29T08:53:00.604Z,31.30
2022-08-29T08:55:40.667Z,31.00
2022-08-29T08:58:29.192Z,30.90
2022-08-29T09:01:00.893Z,31.00
2022-08-29T09:04:00.276Z,31.30
2022-08-29T09:06:44.967Z,31.40
2022-08-29T09:09:22.665Z,31.30
2022-08-29T09:12:01.439Z,31.50
2022-08-29T09:14:48.002Z,31.40
2022-08-29T09:17:21.932Z,30.80
2022-08-29T09:19:51.975Z,30.30
2022-08-29T09:22:26.845Z,30.00
2022-08-29T09:25:03.790Z,29.80
2022-08-29T09:27:34.061Z,29.80
2022-08-29T09:30:07.304Z,29.80
2022-08-29T09:32:39.166Z,29.80
2022-08-29T09:35:20.506Z,29.80
2022-08-29T09:40:25.693Z,29.80
2022-08-29T09:43:03.458Z,29.90
2022-08-29T09:45:31.699Z,30.10
2022-08-29T09:48:11.336Z,30.20
2022-08-29T09:50:40.018Z,30.30
2022-08-29T09:53:16.636Z,30.50
2022-08-29T09:55:54.754Z,30.50
2022-08-29T09:58:31.090Z,30.60
2022-08-29T10:01:02.187Z,30.70
2022-08-29T10:03:36.394Z,30.70
2022-08-29T10:06:13.499Z,30.80
2022-08-29T10:08:43.401Z,30.80
2022-08-29T10:11:29.006Z,30.90
2022-08-29T10:13:59.986Z,31.00
2022-08-29T10:16:38.144Z,31.20
2022-08-29T10:19:12.643Z,31.60
2022-08-29T10:21:48.946Z,31.80
2022-08-29T10:24:33.189Z,32.00
2022-08-29T10:27:11.829Z,32.10
2022-08-29T10:29:59.511Z,32.10
2022-08-29T10:32:45.608Z,32.00
2022-08-29T10:35:19.617Z,31.70
2022-08-29T10:37:56.483Z,31.80
2022-08-29T10:40:31.595Z,31.90
2022-08-29T10:43:22.335Z,32.00
2022-08-29T10:46:03.332Z,32.00
2022-08-29T10:48:37.472Z,32.00
2022-08-29T10:51:17.520Z,31.70
2022-08-29T10:53:48.741Z,31.60
2022-08-29T10:56:22.830Z,31.60
2022-08-29T10:59:01.625Z,31.70
2022-08-29T11:01:35.678Z,31.80
2022-08-29T11:04:21.248Z,32.00
2022-08-29T11:06:56.945Z,32.20
2022-08-29T11:09:30.109Z,32.30
2022-08-29T11:12:07.493Z,32.30
2022-08-29T11:14:41.912Z,32.30
2022-08-29T11:17:13.931Z,32.50
2022-08-29T11:19:51.212Z,32.60
2022-08-29T11:22:23.857Z,32.40
2022-08-29T11:25:10.985Z,32.30
2022-08-29T11:27:47.343Z,32.40
2022-08-29T11:30:23.710Z,32.40
2022-08-29T11:33:04.900Z,32.80
2022-08-29T11:35:42.886Z,33.10
2022-08-29T11:38:36.324Z,33.40
2022-08-29T11:41:28.772Z,33.60
2022-08-29T11:44:09.682Z,33.90
2022-08-29T11:46:42.987Z,33.90
2022-08-29T11:49:40.400Z,33.70
2022-08-29T11:52:32.728Z,33.70
2022-08-29T11:55:39.529Z,33.80
2022-08-29T11:58:28.712Z,33.40
2022-08-29T12:00:58.471Z,33.10
2022-08-29T12:03:55.290Z,32.90
2022-08-29T12:06:55.457Z,32.90
2022-08-29T12:09:40.980Z,32.70
2022-08-29T12:12:18.404Z,32.80
2022-08-29T12:14:47.773Z,32.70
2022-08-29T12:18:03.853Z,32.80
2022-08-29T12:20:44.434Z,32.50
2022-08-29T12:23:21.942Z,32.60
2022-08-29T12:26:09.656Z,32.60
2022-08-29T12:28:57.261Z,32.60
2022-08-29T12:32:18.781Z,32.60
2022-08-29T12:35:11.322Z,32.60
2022-08-29T12:38:03.399Z,32.70
2022-08-29T12:40:58.211Z,32.90
2022-08-29T12:43:42.673Z,33.20
2022-08-29T12:46:18.252Z,33.30
2022-08-29T12:48:57.390Z,33.40
2022-08-29T12:51:34.072Z,33.80
2022-08-29T12:54:03.596Z,34.00
2022-08-29T12:56:31.924Z,34.20
2022-08-29T12:59:02.519Z,34.40
2022-08-29T13:01:34.520Z,34.60
2022-08-29T13:04:06.768Z,34.80
2022-08-29T13:06:35.458Z,34.80
2022-08-29T13:09:06.135Z,35.00
2022-08-29T13:11:36.035Z,35.20
2022-08-29T13:14:09.954Z,35.50
2022-08-29T13:16:40.206Z,35.60
2022-08-29T13:19:22.340Z,35.90
2022-08-29T13:21:50.525Z,36.20
2022-08-29T13:24:21.620Z,36.30
2022-08-29T13:27:01.056Z,36.50
2022-08-29T13:29:37.853Z,36.70
2022-08-29T13:32:24.087Z,36.90
2022-08-29T13:35:07.207Z,37.10
2022-08-29T13:37:38.206Z,37.30
2022-08-29T13:40:34.385Z,37.50
2022-08-29T13:43:03.179Z,37.60
2022-08-29T13:45:31.943Z,37.40
2022-08-29T13:48:14.584Z,37.10
2022-08-29T13:50:42.822Z,36.80
2022-08-29T13:53:11.078Z,36.60
2022-08-29T13:55:42.790Z,36.10
2022-08-29T13:58:14.721Z,35.70
2022-08-29T14:00:44.111Z,35.50
2022-08-29T14:03:13.218Z,35.60
2022-08-29T14:05:41.374Z,36.10
2022-08-29T14:08:12.715Z,36.60
2022-08-29T14:10:42.515Z,37.10
2022-08-29T14:13:10.616Z,37.80
2022-08-29T14:15:39.413Z,38.20
2022-08-29T14:18:07.690Z,38.00
2022-08-29T14:20:37.117Z,37.20
2022-08-29T14:23:05.456Z,37.40
2022-08-29T14:25:33.565Z,37.60
2022-08-29T14:28:03.658Z,38.50
2022-08-29T14:30:32.045Z,39.40
2022-08-29T14:33:00.912Z,40.20
2022-08-29T14:35:31.630Z,40.60
2022-08-29T14:38:01.402Z,40.70
2022-08-29T14:40:30.405Z,40.70
2022-08-29T14:42:58.720Z,40.70
2022-08-29T14:45:28.749Z,40.70
2022-08-29T14:47:57.182Z,41.00
2022-08-29T14:50:26.067Z,41.40
2022-08-29T14:52:55.059Z,41.80
2022-08-29T14:55:23.761Z,42.20
2022-08-29T14:57:51.699Z,42.50
2022-08-29T15:00:23.342Z,42.80
2022-08-29T15:02:53.464Z,43.00
2022-08-29T15:05:22.505Z,43.10
2022-08-29T15:07:51.277Z,43.20
2022-08-29T15:10:22.857Z,43.40
2022-08-29T15:12:51.307Z,43.50
2022-08-29T15:15:28.578Z,43.70
2022-08-29T15:17:59.098Z,43.70
2022-08-29T15:20:36.232Z,43.60
2022-08-29T15:23:06.076Z,43.10
2022-08-29T15:25:34.212Z,43.30
2022-08-29T15:28:02.823Z,43.50
2022-08-29T15:30:31.588Z,43.40
2022-08-29T15:33:01.133Z,43.10
2022-08-29T15:35:29.325Z,43.30
2022-08-29T15:37:57.497Z,43.40
2022-08-29T15:40:26.056Z,43.50
2022-08-29T15:42:54.237Z,43.50
2022-08-29T15:45:22.835Z,43.60
2022-08-29T15:47:53.971Z,43.70
2022-08-29T15:50:23.998Z,43.60
2022-08-29T15:52:52.156Z,43.50
2022-08-29T15:55:20.326Z,43.50
2022-08-29T15:57:52.374Z,43.20
2022-08-29T16:00:30.381Z,42.80
2022-08-29T16:03:00.909Z,42.50
2022-08-29T16:05:31.136Z,42.10
2022-08-29T16:07:59.317Z,41.80
2022-08-29T16:10:27.431Z,41.50
2022-08-29T16:12:55.544Z,41.30
2022-08-29T16:15:23.884Z,41.10
2022-08-29T16:17:52.627Z,40.90
2022-08-29T16:20:20.632Z,40.80
2022-08-29T16:22:50.563Z,40.60
2022-08-29T16:25:18.735Z,40.30
2022-08-29T16:27:46.989Z,40.00
2022-08-29T16:30:16.485Z,39.90
2022-08-29T16:32:44.740Z,39.70
2022-08-29T16:35:13.849Z,39.40
2022-08-29T16:37:42.069Z,39.00
2022-08-29T16:40:15.285Z,38.70
2022-08-29T16:42:55.247Z,38.50
2022-08-29T16:45:24.524Z,38.40
2022-08-29T16:47:57.220Z,38.40
2022-08-29T16:50:25.787Z,38.40
2022-08-29T16:52:54.304Z,38.20
2022-08-29T16:55:24.125Z,38.10
2022-08-29T16:58:06.158Z,38.00
2022-08-29T17:00:35.036Z,37.90
2022-08-29T17:03:03.194Z,37.80
2022-08-29T17:05:31.592Z,37.70
2022-08-29T17:07:58.694Z,37.50
2022-08-29T17:10:27.042Z,37.40
2022-08-29T17:12:54.464Z,37.20
2022-08-29T17:15:21.854Z,37.10
2022-08-29T17:17:50.069Z,36.90
2022-08-29T17:20:20.329Z,36.80
2022-08-29T17:22:48.587Z,36.60
2022-08-29T17:25:16.749Z,36.40
2022-08-29T17:28:00.968Z,36.30
2022-08-29T17:30:35.677Z,36.20
2022-08-29T17:33:03.608Z,36.00
2022-08-29T17:35:32.327Z,35.80
2022-08-29T17:38:00.541Z,35.70
2022-08-29T17:40:29.149Z,35.70
2022-08-29T17:43:00.297Z,35.60
2022-08-29T17:45:28.862Z,35.50
2022-08-29T17:47:57.077Z,35.30
2022-08-29T17:50:25.209Z,35.20
2022-08-29T17:52:54.144Z,35.10
2022-08-29T17:55:22.244Z,35.00
2022-08-29T17:57:50.372Z,34.90
2022-08-29T18:00:21.657Z,34.80
2022-08-29T18:02:50.292Z,34.70
2022-08-29T18:05:18.637Z,34.50
2022-08-29T18:07:46.773Z,34.40
2022-08-29T18:10:17.471Z,34.30
2022-08-29T18:12:46.221Z,34.20
2022-08-29T18:15:15.459Z,34.10
2022-08-29T18:17:45.485Z,34.00
2022-08-29T18:20:19.389Z,33.90
2022-08-29T18:22:48.536Z,33.90
2022-08-29T18:25:22.712Z,33.80
2022-08-29T18:27:51.396Z,33.70
2022-08-29T18:30:20.424Z,33.60
2022-08-29T18:32:50.445Z,33.50
2022-08-29T18:35:18.825Z,33.50
2022-08-29T18:37:46.962Z,33.40
2022-08-29T18:40:15.164Z,33.30
2022-08-29T18:42:44.597Z,33.20
2022-08-29T18:45:13.441Z,33.20
2022-08-29T18:47:42.028Z,33.10
2022-08-29T18:50:29.705Z,33.00
2022-08-29T18:52:57.873Z,33.00
2022-08-29T18:55:26.147Z,32.80
2022-08-29T18:57:55.130Z,32.80
2022-08-29T19:00:25.009Z,32.70
2022-08-29T19:02:53.537Z,32.70
2022-08-29T19:05:24.395Z,32.60
2022-08-29T19:07:53.197Z,32.50
2022-08-29T19:10:21.797Z,32.50
2022-08-29T19:12:50.593Z,32.40
2022-08-29T19:15:20.190Z,32.40
2022-08-29T19:17:48.335Z,32.30
2022-08-29T19:20:36.912Z,32.20
2022-08-29T19:23:07.338Z,32.20
2022-08-29T19:25:35.711Z,32.10
2022-08-29T19:28:04.591Z,32.00
2022-08-29T19:30:33.285Z,32.00
2022-08-29T19:33:01.556Z,31.90
2022-08-29T19:35:29.644Z,31.80
2022-08-29T19:37:57.864Z,31.80
2022-08-29T19:40:32.624Z,31.80
2022-08-29T19:43:03.938Z,31.70
2022-08-29T19:45:44.182Z,31.60
2022-08-29T19:48:14.939Z,31.60
2022-08-29T19:50:47.598Z,31.50
2022-08-29T19:53:26.517Z,31.50
2022-08-29T19:55:57.421Z,31.40
2022-08-29T19:58:31.589Z,31.00
2022-08-29T20:01:01.769Z,30.80
2022-08-29T20:03:30.303Z,30.60
2022-08-29T20:05:59.575Z,30.40
2022-08-29T20:08:29.305Z,30.20
2022-08-29T20:11:01.102Z,30.10
2022-08-29T20:13:34.083Z,30.10
2022-08-29T20:16:04.003Z,30.00
2022-08-29T20:18:32.767Z,29.80
2022-08-29T20:21:00.858Z,29.70
2022-08-29T20:23:30.220Z,29.80
2022-08-29T20:25:59.852Z,29.90
2022-08-29T20:28:31.000Z,29.90
2022-08-29T20:30:59.750Z,29.90
2022-08-29T20:33:27.895Z,29.90
2022-08-29T20:36:13.414Z,29.90
2022-08-29T20:38:41.533Z,30.00
2022-08-29T20:41:09.665Z,29.90
2022-08-29T20:43:39.325Z,29.90
2022-08-29T20:46:08.538Z,29.90
2022-08-29T20:48:36.989Z,29.90
2022-08-29T20:51:07.456Z,29.80
2022-08-29T20:53:36.705Z,29.80
2022-08-29T20:56:05.440Z,29.80
2022-08-29T20:58:34.667Z,29.80
2022-08-29T21:01:04.381Z,29.70
2022-08-29T21:03:50.065Z,29.70
2022-08-29T21:06:21.805Z,29.70
2022-08-29T21:08:50.060Z,29.60
2022-08-29T21:11:18.265Z,29.50
2022-08-29T21:13:46.695Z,29.40
2022-08-29T21:16:17.741Z,29.40
2022-08-29T21:18:45.923Z,29.40
2022-08-29T21:21:14.401Z,29.40
2022-08-29T21:23:42.520Z,29.30
2022-08-29T21:26:11.856Z,29.40
2022-08-29T21:28:41.015Z,29.30
2022-08-29T21:31:11.897Z,29.30
2022-08-29T21:33:43.542Z,29.30
2022-08-29T21:36:12.527Z,29.30
2022-08-29T21:38:40.691Z,29.20
2022-08-29T21:41:10.009Z,29.20
2022-08-29T21:43:38.481Z,29.20
2022-08-29T21:46:15.719Z,29.20
2022-08-29T21:48:45.837Z,29.20
2022-08-29T21:51:18.662Z,29.10
2022-08-29T21:53:47.616Z,29.10
2022-08-29T21:56:16.107Z,29.10
2022-08-29T21:58:44.485Z,29.10
2022-08-29T22:01:12.812Z,29.10
2022-08-29T22:03:41.482Z,29.00
2022-08-29T22:06:11.404Z,29.00
2022-08-29T22:08:39.916Z,29.00
2022-08-29T22:11:14.579Z,29.00
2022-08-29T22:13:43.277Z,29.00
2022-08-29T22:16:28.795Z,28.90
2022-08-29T22:19:01.675Z,28.90
2022-08-29T22:21:34.146Z,28.90
2022-08-29T22:24:03.295Z,28.90
2022-08-29T22:26:31.940Z,28.90
2022-08-29T22:29:00.314Z,28.90
2022-08-29T22:31:28.867Z,28.80
2022-08-29T22:33:57.018Z,28.70
2022-08-29T22:36:25.135Z,28.60
2022-08-29T22:38:56.500Z,28.50
2022-08-29T22:41:25.719Z,28.40
2022-08-29T22:44:16.806Z,28.30
2022-08-29T22:46:45.381Z,28.30
2022-08-29T22:49:14.201Z,28.20
2022-08-29T22:51:42.363Z,28.10
2022-08-29T22:54:29.140Z,28.10
2022-08-29T22:56:57.907Z,28.10
2022-08-29T22:59:26.127Z,28.20
2022-08-29T23:01:54.578Z,28.20
2022-08-29T23:04:23.341Z,28.30
2022-08-29T23:06:51.519Z,28.30
2022-08-29T23:09:21.475Z,28.30
2022-08-29T23:11:50.240Z,28.30
2022-08-29T23:14:20.669Z,28.30
2022-08-29T23:16:49.089Z,28.30
2022-08-29T23:19:17.443Z,28.20
2022-08-29T23:21:46.053Z,28.10
2022-08-29T23:24:14.582Z,28.00
2022-08-29T23:26:44.032Z,28.00
2022-08-29T23:29:14.770Z,28.00
2022-08-29T23:31:43.042Z,28.00
2022-08-29T23:34:11.186Z,27.90
2022-08-29T23:36:39.617Z,28.00
2022-08-29T23:39:08.335Z,27.90
2022-08-29T23:41:37.208Z,27.90
2022-08-29T23:44:06.921Z,27.90
2022-08-29T23:46:36.865Z,27.90
2022-08-29T23:49:05.451Z,27.90
2022-08-29T23:51:33.902Z,27.80
2022-08-29T23:54:02.242Z,27.80
2022-08-29T23:56:31.703Z,27.80
2022-08-29T23:58:59.888Z,27.70
